sensor_id;sensor_type;location;lat;lon;timestamp;P1;durP1;ratioP1;P2;durP2;ratioP2
1525;SDS011;756;49.982;8.240;2022-09-09T00:04:29;4.60;;;1.50;;
1525;SDS011;756;49.982;8.240;2022-09-09T00:10:17;1.53;;;1.30;;
1525;SDS011;756;49.982;8.240;2022-09-09T00:15:19;2.47;;;1.30;;
1525;SDS011;756;49.982;8.240;2022-09-09T00:20:20;2.23;;;1.17;;
1525;SDS011;756;49.982;8.240;2022-09-09T00:23:04;1.37;;;1.10;;
1525;SDS011;756;49.982;8.240;2022-09-09T00:25:34;3.50;;;1.00;;
1525;SDS011;756;49.982;8.240;2022-09-09T00:28:12;3.53;;;1.60;;
1525;SDS011;756;49.982;8.240;2022-09-09T00:30:44;4.40;;;1.80;;
1525;SDS011;756;49.982;8.240;2022-09-09T00:33:15;2.10;;;1.47;;
1525;SDS011;756;49.982;8.240;2022-09-09T00:35:47;3.73;;;1.73;;
1525;SDS011;756;49.982;8.240;2022-09-09T00:38:18;2.27;;;1.50;;
1525;SDS011;756;49.982;8.240;2022-09-09T00:40:53;2.30;;;1.10;;
1525;SDS011;756;49.982;8.240;2022-09-09T00:43:30;1.33;;;1.20;;
1525;SDS011;756;49.982;8.240;2022-09-09T00:57:25;3.00;;;1.60;;
1525;SDS011;756;49.982;8.240;2022-09-09T01:06:02;3.03;;;2.17;;
1525;SDS011;756;49.982;8.240;2022-09-09T01:11:31;1.77;;;1.67;;
1525;SDS011;756;49.982;8.240;2022-09-09T01:14:09;2.53;;;1.50;;
1525;SDS011;756;49.982;8.240;2022-09-09T01:16:45;5.50;;;1.50;;
1525;SDS011;756;49.982;8.240;2022-09-09T01:19:17;2.20;;;1.40;;
1525;SDS011;756;49.982;8.240;2022-09-09T01:21:54;3.20;;;1.67;;
1525;SDS011;756;49.982;8.240;2022-09-09T01:24:37;5.73;;;2.60;;
1525;SDS011;756;49.982;8.240;2022-09-09T01:27:08;4.73;;;2.40;;
1525;SDS011;756;49.982;8.240;2022-09-09T01:29:36;2.17;;;1.00;;
1525;SDS011;756;49.982;8.240;2022-09-09T01:35:10;3.20;;;1.73;;
1525;SDS011;756;49.982;8.240;2022-09-09T01:37:47;1.63;;;1.40;;
1525;SDS011;756;49.982;8.240;2022-09-09T01:40:14;1.40;;;1.10;;
1525;SDS011;756;49.982;8.240;2022-09-09T01:42:41;2.93;;;1.40;;
1525;SDS011;756;49.982;8.240;2022-09-09T01:45:08;2.30;;;1.20;;
1525;SDS011;756;49.982;8.240;2022-09-09T01:47:35;2.90;;;1.70;;
1525;SDS011;756;49.982;8.240;2022-09-09T01:50:02;2.00;;;1.37;;
1525;SDS011;756;49.982;8.240;2022-09-09T01:52:30;1.40;;;1.20;;
1525;SDS011;756;49.982;8.240;2022-09-09T01:54:59;1.60;;;1.50;;
1525;SDS011;756;49.982;8.240;2022-09-09T01:57:27;5.60;;;1.47;;
1525;SDS011;756;49.982;8.240;2022-09-09T02:00:13;2.60;;;1.30;;
1525;SDS011;756;49.982;8.240;2022-09-09T02:02:48;3.13;;;1.43;;
1525;SDS011;756;49.982;8.240;2022-09-09T02:05:45;5.83;;;2.07;;
1525;SDS011;756;49.982;8.240;2022-09-09T02:08:42;2.40;;;1.10;;
1525;SDS011;756;49.982;8.240;2022-09-09T02:11:17;3.00;;;1.60;;
1525;SDS011;756;49.982;8.240;2022-09-09T02:13:51;1.40;;;1.20;;
1525;SDS011;756;49.982;8.240;2022-09-09T02:16:24;2.37;;;1.40;;
1525;SDS011;756;49.982;8.240;2022-09-09T02:18:59;4.00;;;1.40;;
1525;SDS011;756;49.982;8.240;2022-09-09T02:21:28;1.67;;;1.27;;
1525;SDS011;756;49.982;8.240;2022-09-09T02:23:56;1.47;;;1.27;;
1525;SDS011;756;49.982;8.240;2022-09-09T02:26:25;2.73;;;1.30;;
1525;SDS011;756;49.982;8.240;2022-09-09T02:28:53;2.73;;;1.10;;
1525;SDS011;756;49.982;8.240;2022-09-09T02:31:24;5.30;;;1.33;;
1525;SDS011;756;49.982;8.240;2022-09-09T02:33:52;1.37;;;1.20;;
1525;SDS011;756;49.982;8.240;2022-09-09T02:36:23;4.33;;;1.37;;
1525;SDS011;756;49.982;8.240;2022-09-09T02:38:52;1.37;;;1.13;;
1525;SDS011;756;49.982;8.240;2022-09-09T02:41:20;1.53;;;1.30;;
1525;SDS011;756;49.982;8.240;2022-09-09T02:43:52;5.47;;;1.67;;
1525;SDS011;756;49.982;8.240;2022-09-09T02:49:26;1.50;;;1.30;;
1525;SDS011;756;49.982;8.240;2022-09-09T02:52:22;2.40;;;1.20;;
1525;SDS011;756;49.982;8.240;2022-09-09T02:54:57;1.30;;;1.10;;
1525;SDS011;756;49.982;8.240;2022-09-09T02:57:30;2.93;;;1.23;;
1525;SDS011;756;49.982;8.240;2022-09-09T02:59:58;3.30;;;1.40;;
1525;SDS011;756;49.982;8.240;2022-09-09T03:02:25;3.20;;;1.27;;
1525;SDS011;756;49.982;8.240;2022-09-09T03:04:52;2.67;;;1.50;;
1525;SDS011;756;49.982;8.240;2022-09-09T03:07:18;2.60;;;1.70;;
1525;SDS011;756;49.982;8.240;2022-09-09T03:09:45;2.17;;;1.70;;
1525;SDS011;756;49.982;8.240;2022-09-09T03:12:12;1.50;;;1.40;;
1525;SDS011;756;49.982;8.240;2022-09-09T03:14:38;2.50;;;1.57;;
1525;SDS011;756;49.982;8.240;2022-09-09T03:17:05;1.30;;;1.20;;
1525;SDS011;756;49.982;8.240;2022-09-09T03:19:32;1.50;;;1.20;;
1525;SDS011;756;49.982;8.240;2022-09-09T03:22:01;5.90;;;2.00;;
1525;SDS011;756;49.982;8.240;2022-09-09T03:24:27;2.83;;;1.60;;
1525;SDS011;756;49.982;8.240;2022-09-09T03:26:54;1.40;;;1.20;;
1525;SDS011;756;49.982;8.240;2022-09-09T03:29:21;2.20;;;1.70;;
1525;SDS011;756;49.982;8.240;2022-09-09T03:31:48;4.87;;;1.50;;
1525;SDS011;756;49.982;8.240;2022-09-09T03:34:16;3.70;;;2.20;;
1525;SDS011;756;49.982;8.240;2022-09-09T03:36:43;6.67;;;1.70;;
1525;SDS011;756;49.982;8.240;2022-09-09T03:39:09;5.60;;;1.77;;
1525;SDS011;756;49.982;8.240;2022-09-09T03:41:36;2.30;;;1.70;;
1525;SDS011;756;49.982;8.240;2022-09-09T03:44:03;2.87;;;1.40;;
1525;SDS011;756;49.982;8.240;2022-09-09T03:46:29;1.80;;;1.13;;
1525;SDS011;756;49.982;8.240;2022-09-09T03:48:57;2.33;;;1.40;;
1525;SDS011;756;49.982;8.240;2022-09-09T03:51:24;2.50;;;1.50;;
1525;SDS011;756;49.982;8.240;2022-09-09T03:53:50;2.20;;;1.80;;
1525;SDS011;756;49.982;8.240;2022-09-09T03:56:17;3.10;;;1.60;;
1525;SDS011;756;49.982;8.240;2022-09-09T03:58:44;3.73;;;1.57;;
1525;SDS011;756;49.982;8.240;2022-09-09T04:01:11;8.60;;;1.77;;
1525;SDS011;756;49.982;8.240;2022-09-09T04:03:39;2.87;;;1.60;;
1525;SDS011;756;49.982;8.240;2022-09-09T04:06:07;2.10;;;1.73;;
1525;SDS011;756;49.982;8.240;2022-09-09T04:08:35;3.70;;;1.67;;
1525;SDS011;756;49.982;8.240;2022-09-09T04:11:03;5.97;;;2.70;;
1525;SDS011;756;49.982;8.240;2022-09-09T04:13:33;3.87;;;2.40;;
1525;SDS011;756;49.982;8.240;2022-09-09T04:16:01;2.93;;;2.60;;
1525;SDS011;756;49.982;8.240;2022-09-09T04:18:30;6.03;;;3.27;;
1525;SDS011;756;49.982;8.240;2022-09-09T04:20:57;6.03;;;2.27;;
1525;SDS011;756;49.982;8.240;2022-09-09T04:23:26;2.00;;;1.80;;
1525;SDS011;756;49.982;8.240;2022-09-09T04:25:55;1.67;;;1.57;;
1525;SDS011;756;49.982;8.240;2022-09-09T04:28:24;2.33;;;2.13;;
1525;SDS011;756;49.982;8.240;2022-09-09T04:30:51;2.40;;;2.00;;
1525;SDS011;756;49.982;8.240;2022-09-09T04:33:18;3.63;;;1.70;;
1525;SDS011;756;49.982;8.240;2022-09-09T04:35:46;1.50;;;1.30;;
1525;SDS011;756;49.982;8.240;2022-09-09T04:38:15;1.63;;;1.40;;
1525;SDS011;756;49.982;8.240;2022-09-09T04:40:43;1.83;;;1.70;;
1525;SDS011;756;49.982;8.240;2022-09-09T04:43:19;5.80;;;1.90;;
1525;SDS011;756;49.982;8.240;2022-09-09T04:45:50;4.10;;;2.00;;
1525;SDS011;756;49.982;8.240;2022-09-09T04:48:18;1.50;;;1.40;;
1525;SDS011;756;49.982;8.240;2022-09-09T04:50:53;1.93;;;1.30;;
1525;SDS011;756;49.982;8.240;2022-09-09T04:53:31;2.43;;;1.73;;
1525;SDS011;756;49.982;8.240;2022-09-09T04:58:33;2.73;;;1.50;;
1525;SDS011;756;49.982;8.240;2022-09-09T05:01:04;2.60;;;1.50;;
1525;SDS011;756;49.982;8.240;2022-09-09T05:03:32;2.60;;;1.63;;
1525;SDS011;756;49.982;8.240;2022-09-09T05:08:33;3.20;;;1.77;;
1525;SDS011;756;49.982;8.240;2022-09-09T05:11:00;2.10;;;1.67;;
1525;SDS011;756;49.982;8.240;2022-09-09T05:13:27;4.87;;;1.87;;
1525;SDS011;756;49.982;8.240;2022-09-09T05:15:54;2.10;;;1.90;;
1525;SDS011;756;49.982;8.240;2022-09-09T05:18:20;4.13;;;1.77;;
1525;SDS011;756;49.982;8.240;2022-09-09T05:20:48;2.23;;;1.70;;
1525;SDS011;756;49.982;8.240;2022-09-09T05:23:16;2.50;;;1.50;;
1525;SDS011;756;49.982;8.240;2022-09-09T05:25:43;3.03;;;1.77;;
1525;SDS011;756;49.982;8.240;2022-09-09T05:28:11;3.33;;;1.30;;
1525;SDS011;756;49.982;8.240;2022-09-09T05:30:38;2.07;;;1.87;;
1525;SDS011;756;49.982;8.240;2022-09-09T05:33:05;3.97;;;1.87;;
1525;SDS011;756;49.982;8.240;2022-09-09T05:35:32;3.17;;;2.23;;
1525;SDS011;756;49.982;8.240;2022-09-09T05:37:59;2.47;;;1.83;;
1525;SDS011;756;49.982;8.240;2022-09-09T05:40:26;2.87;;;2.13;;
1525;SDS011;756;49.982;8.240;2022-09-09T05:42:53;7.83;;;2.03;;
1525;SDS011;756;49.982;8.240;2022-09-09T05:45:19;3.33;;;1.83;;
1525;SDS011;756;49.982;8.240;2022-09-09T05:47:50;3.93;;;2.30;;
1525;SDS011;756;49.982;8.240;2022-09-09T05:50:19;2.67;;;1.80;;
1525;SDS011;756;49.982;8.240;2022-09-09T05:52:46;3.33;;;1.80;;
1525;SDS011;756;49.982;8.240;2022-09-09T05:55:14;3.43;;;1.70;;
1525;SDS011;756;49.982;8.240;2022-09-09T05:57:41;5.77;;;1.87;;
1525;SDS011;756;49.982;8.240;2022-09-09T06:00:08;4.23;;;1.43;;
1525;SDS011;756;49.982;8.240;2022-09-09T06:02:35;2.43;;;1.23;;
1525;SDS011;756;49.982;8.240;2022-09-09T06:05:04;1.70;;;1.53;;
1525;SDS011;756;49.982;8.240;2022-09-09T06:07:31;3.10;;;1.60;;
1525;SDS011;756;49.982;8.240;2022-09-09T06:09:57;2.20;;;1.47;;
1525;SDS011;756;49.982;8.240;2022-09-09T06:12:25;2.50;;;1.30;;
1525;SDS011;756;49.982;8.240;2022-09-09T06:14:52;4.00;;;1.47;;
1525;SDS011;756;49.982;8.240;2022-09-09T06:17:18;2.13;;;1.40;;
1525;SDS011;756;49.982;8.240;2022-09-09T06:19:45;3.27;;;1.40;;
1525;SDS011;756;49.982;8.240;2022-09-09T06:22:12;3.37;;;1.70;;
1525;SDS011;756;49.982;8.240;2022-09-09T06:24:38;4.10;;;1.60;;
1525;SDS011;756;49.982;8.240;2022-09-09T06:27:05;2.70;;;1.40;;
1525;SDS011;756;49.982;8.240;2022-09-09T06:29:32;3.90;;;2.10;;
1525;SDS011;756;49.982;8.240;2022-09-09T06:31:58;3.17;;;1.93;;
1525;SDS011;756;49.982;8.240;2022-09-09T06:34:26;1.70;;;1.60;;
1525;SDS011;756;49.982;8.240;2022-09-09T06:36:52;4.87;;;1.70;;
1525;SDS011;756;49.982;8.240;2022-09-09T06:39:19;13.03;;;2.27;;
1525;SDS011;756;49.982;8.240;2022-09-09T06:41:46;4.23;;;1.50;;
1525;SDS011;756;49.982;8.240;2022-09-09T06:44:14;2.80;;;1.83;;
1525;SDS011;756;49.982;8.240;2022-09-09T06:46:41;3.10;;;2.30;;
1525;SDS011;756;49.982;8.240;2022-09-09T06:49:08;3.40;;;2.10;;
1525;SDS011;756;49.982;8.240;2022-09-09T06:51:36;5.27;;;1.90;;
1525;SDS011;756;49.982;8.240;2022-09-09T06:54:09;5.67;;;2.07;;
1525;SDS011;756;49.982;8.240;2022-09-09T06:56:38;2.20;;;1.80;;
1525;SDS011;756;49.982;8.240;2022-09-09T06:59:10;3.73;;;1.70;;
1525;SDS011;756;49.982;8.240;2022-09-09T07:01:42;4.43;;;2.30;;
1525;SDS011;756;49.982;8.240;2022-09-09T07:04:21;4.83;;;2.00;;
1525;SDS011;756;49.982;8.240;2022-09-09T07:06:47;2.70;;;1.73;;
1525;SDS011;756;49.982;8.240;2022-09-09T07:09:15;4.50;;;2.47;;
1525;SDS011;756;49.982;8.240;2022-09-09T07:11:46;6.40;;;2.47;;
1525;SDS011;756;49.982;8.240;2022-09-09T07:14:15;4.60;;;1.93;;
1525;SDS011;756;49.982;8.240;2022-09-09T07:16:41;6.50;;;2.30;;
1525;SDS011;756;49.982;8.240;2022-09-09T07:19:10;3.47;;;2.43;;
1525;SDS011;756;49.982;8.240;2022-09-09T07:21:37;8.00;;;3.43;;
1525;SDS011;756;49.982;8.240;2022-09-09T07:24:06;8.40;;;2.80;;
1525;SDS011;756;49.982;8.240;2022-09-09T07:26:33;2.70;;;2.50;;
1525;SDS011;756;49.982;8.240;2022-09-09T07:29:01;5.10;;;4.10;;
1525;SDS011;756;49.982;8.240;2022-09-09T07:31:29;5.97;;;3.47;;
1525;SDS011;756;49.982;8.240;2022-09-09T07:33:58;4.60;;;3.73;;
1525;SDS011;756;49.982;8.240;2022-09-09T07:36:31;6.40;;;3.17;;
1525;SDS011;756;49.982;8.240;2022-09-09T07:39:00;4.60;;;3.57;;
1525;SDS011;756;49.982;8.240;2022-09-09T07:41:31;4.03;;;3.53;;
1525;SDS011;756;49.982;8.240;2022-09-09T07:44:07;6.50;;;2.87;;
1525;SDS011;756;49.982;8.240;2022-09-09T07:46:45;7.20;;;4.27;;
1525;SDS011;756;49.982;8.240;2022-09-09T07:49:12;6.87;;;3.70;;
1525;SDS011;756;49.982;8.240;2022-09-09T07:51:40;5.33;;;3.47;;
1525;SDS011;756;49.982;8.240;2022-09-09T07:54:10;4.97;;;3.13;;
1525;SDS011;756;49.982;8.240;2022-09-09T07:56:39;4.33;;;3.43;;
1525;SDS011;756;49.982;8.240;2022-09-09T07:59:06;4.63;;;3.40;;
1525;SDS011;756;49.982;8.240;2022-09-09T08:01:35;7.27;;;4.03;;
1525;SDS011;756;49.982;8.240;2022-09-09T08:04:06;7.10;;;3.60;;
1525;SDS011;756;49.982;8.240;2022-09-09T08:06:41;7.00;;;4.20;;
1525;SDS011;756;49.982;8.240;2022-09-09T08:09:10;9.20;;;5.00;;
1525;SDS011;756;49.982;8.240;2022-09-09T08:11:38;6.70;;;3.40;;
1525;SDS011;756;49.982;8.240;2022-09-09T08:14:06;4.83;;;3.37;;
1525;SDS011;756;49.982;8.240;2022-09-09T08:16:34;6.40;;;3.67;;
1525;SDS011;756;49.982;8.240;2022-09-09T08:19:03;3.93;;;3.17;;
1525;SDS011;756;49.982;8.240;2022-09-09T08:21:32;8.73;;;3.37;;
1525;SDS011;756;49.982;8.240;2022-09-09T08:24:02;5.93;;;3.23;;
1525;SDS011;756;49.982;8.240;2022-09-09T08:26:35;6.40;;;3.20;;
1525;SDS011;756;49.982;8.240;2022-09-09T08:29:13;8.60;;;2.80;;
1525;SDS011;756;49.982;8.240;2022-09-09T08:34:11;7.87;;;3.00;;
1525;SDS011;756;49.982;8.240;2022-09-09T08:36:40;3.10;;;2.70;;
1525;SDS011;756;49.982;8.240;2022-09-09T08:39:09;7.73;;;3.10;;
1525;SDS011;756;49.982;8.240;2022-09-09T08:52:55;6.00;;;2.83;;
1525;SDS011;756;49.982;8.240;2022-09-09T08:58:15;3.73;;;2.73;;
1525;SDS011;756;49.982;8.240;2022-09-09T09:06:15;7.27;;;3.03;;
1525;SDS011;756;49.982;8.240;2022-09-09T09:08:51;3.10;;;2.53;;
1525;SDS011;756;49.982;8.240;2022-09-09T09:11:34;2.70;;;2.40;;
1525;SDS011;756;49.982;8.240;2022-09-09T09:14:16;3.70;;;1.90;;
1525;SDS011;756;49.982;8.240;2022-09-09T09:19:24;4.27;;;1.73;;
1525;SDS011;756;49.982;8.240;2022-09-09T09:22:00;3.60;;;1.90;;
1525;SDS011;756;49.982;8.240;2022-09-09T09:24:52;7.43;;;2.40;;
1525;SDS011;756;49.982;8.240;2022-09-09T09:30:20;3.10;;;1.83;;
1525;SDS011;756;49.982;8.240;2022-09-09T09:35:24;5.83;;;2.00;;
1525;SDS011;756;49.982;8.240;2022-09-09T09:37:51;3.40;;;2.17;;
1525;SDS011;756;49.982;8.240;2022-09-09T09:40:47;6.33;;;1.87;;
1525;SDS011;756;49.982;8.240;2022-09-09T09:43:28;3.70;;;1.40;;
1525;SDS011;756;49.982;8.240;2022-09-09T09:45:56;2.57;;;1.70;;
1525;SDS011;756;49.982;8.240;2022-09-09T09:48:42;4.27;;;1.47;;
1525;SDS011;756;49.982;8.240;2022-09-09T09:51:12;6.50;;;1.97;;
1525;SDS011;756;49.982;8.240;2022-09-09T09:53:42;2.30;;;1.63;;
1525;SDS011;756;49.982;8.240;2022-09-09T09:56:10;3.00;;;1.50;;
1525;SDS011;756;49.982;8.240;2022-09-09T10:01:28;4.10;;;2.03;;
1525;SDS011;756;49.982;8.240;2022-09-09T10:04:12;3.97;;;1.83;;
1525;SDS011;756;49.982;8.240;2022-09-09T10:06:44;4.53;;;1.70;;
1525;SDS011;756;49.982;8.240;2022-09-09T10:09:25;4.80;;;1.63;;
1525;SDS011;756;49.982;8.240;2022-09-09T10:11:55;6.03;;;2.50;;
1525;SDS011;756;49.982;8.240;2022-09-09T10:14:32;3.20;;;2.23;;
1525;SDS011;756;49.982;8.240;2022-09-09T10:22:44;2.67;;;1.40;;
1525;SDS011;756;49.982;8.240;2022-09-09T10:36:17;3.47;;;1.00;;
1525;SDS011;756;49.982;8.240;2022-09-09T10:39:33;2.53;;;0.90;;
1525;SDS011;756;49.982;8.240;2022-09-09T10:55:22;1.57;;;1.27;;
1525;SDS011;756;49.982;8.240;2022-09-09T10:57:55;2.20;;;0.93;;
1525;SDS011;756;49.982;8.240;2022-09-09T11:00:25;2.30;;;0.90;;
1525;SDS011;756;49.982;8.240;2022-09-09T11:03:08;2.30;;;1.20;;
1525;SDS011;756;49.982;8.240;2022-09-09T11:06:09;3.50;;;1.10;;
1525;SDS011;756;49.982;8.240;2022-09-09T11:08:37;2.00;;;1.37;;
1525;SDS011;756;49.982;8.240;2022-09-09T11:11:19;4.60;;;1.40;;
1525;SDS011;756;49.982;8.240;2022-09-09T11:14:12;3.57;;;1.50;;
1525;SDS011;756;49.982;8.240;2022-09-09T11:17:03;1.67;;;1.00;;
1525;SDS011;756;49.982;8.240;2022-09-09T11:19:37;1.23;;;1.13;;
1525;SDS011;756;49.982;8.240;2022-09-09T11:24:51;3.73;;;1.20;;
1525;SDS011;756;49.982;8.240;2022-09-09T11:30:22;3.37;;;1.80;;
1525;SDS011;756;49.982;8.240;2022-09-09T11:38:49;4.03;;;1.50;;
1525;SDS011;756;49.982;8.240;2022-09-09T11:41:18;1.30;;;1.20;;
1525;SDS011;756;49.982;8.240;2022-09-09T11:43:53;5.20;;;1.33;;
1525;SDS011;756;49.982;8.240;2022-09-09T11:46:21;3.33;;;1.33;;
1525;SDS011;756;49.982;8.240;2022-09-09T11:49:00;6.07;;;1.40;;
1525;SDS011;756;49.982;8.240;2022-09-09T11:51:30;4.07;;;1.10;;
1525;SDS011;756;49.982;8.240;2022-09-09T11:53:58;1.50;;;1.00;;
1525;SDS011;756;49.982;8.240;2022-09-09T11:56:31;3.10;;;1.40;;
1525;SDS011;756;49.982;8.240;2022-09-09T11:59:25;4.80;;;1.50;;
1525;SDS011;756;49.982;8.240;2022-09-09T12:01:59;1.97;;;1.13;;
1525;SDS011;756;49.982;8.240;2022-09-09T12:04:40;5.00;;;1.37;;
1525;SDS011;756;49.982;8.240;2022-09-09T12:07:33;3.63;;;1.10;;
1525;SDS011;756;49.982;8.240;2022-09-09T12:10:05;3.67;;;1.20;;
1525;SDS011;756;49.982;8.240;2022-09-09T12:12:53;6.43;;;1.43;;
1525;SDS011;756;49.982;8.240;2022-09-09T12:15:21;3.70;;;0.90;;
1525;SDS011;756;49.982;8.240;2022-09-09T12:17:52;1.23;;;1.00;;
1525;SDS011;756;49.982;8.240;2022-09-09T12:20:35;1.87;;;0.90;;
1525;SDS011;756;49.982;8.240;2022-09-09T12:25:53;1.73;;;0.93;;
1525;SDS011;756;49.982;8.240;2022-09-09T12:28:47;3.20;;;1.20;;
1525;SDS011;756;49.982;8.240;2022-09-09T12:31:25;3.73;;;1.63;;
1525;SDS011;756;49.982;8.240;2022-09-09T12:36:42;2.30;;;1.10;;
1525;SDS011;756;49.982;8.240;2022-09-09T12:39:27;1.40;;;1.00;;
1525;SDS011;756;49.982;8.240;2022-09-09T12:42:00;1.97;;;1.20;;
1525;SDS011;756;49.982;8.240;2022-09-09T12:44:26;2.40;;;1.00;;
1525;SDS011;756;49.982;8.240;2022-09-09T12:46:56;1.30;;;0.83;;
1525;SDS011;756;49.982;8.240;2022-09-09T12:52:16;1.80;;;0.90;;
1525;SDS011;756;49.982;8.240;2022-09-09T12:54:47;3.17;;;0.90;;
1525;SDS011;756;49.982;8.240;2022-09-09T12:57:14;1.13;;;0.77;;
1525;SDS011;756;49.982;8.240;2022-09-09T12:59:42;1.10;;;0.53;;
1525;SDS011;756;49.982;8.240;2022-09-09T13:02:17;1.37;;;0.73;;
1525;SDS011;756;49.982;8.240;2022-09-09T13:04:44;4.20;;;0.80;;
1525;SDS011;756;49.982;8.240;2022-09-09T13:07:13;1.70;;;0.73;;
1525;SDS011;756;49.982;8.240;2022-09-09T13:09:42;1.20;;;0.73;;
1525;SDS011;756;49.982;8.240;2022-09-09T13:12:14;1.60;;;0.70;;
1525;SDS011;756;49.982;8.240;2022-09-09T13:14:46;3.60;;;0.80;;
1525;SDS011;756;49.982;8.240;2022-09-09T13:17:24;1.57;;;0.60;;
1525;SDS011;756;49.982;8.240;2022-09-09T13:19:54;1.60;;;0.60;;
1525;SDS011;756;49.982;8.240;2022-09-09T13:22:26;1.10;;;0.73;;
1525;SDS011;756;49.982;8.240;2022-09-09T13:25:27;3.13;;;0.70;;
1525;SDS011;756;49.982;8.240;2022-09-09T13:28:02;1.83;;;0.60;;
1525;SDS011;756;49.982;8.240;2022-09-09T13:35:47;1.90;;;0.57;;
1525;SDS011;756;49.982;8.240;2022-09-09T13:38:15;0.90;;;0.63;;
1525;SDS011;756;49.982;8.240;2022-09-09T13:40:53;3.63;;;0.90;;
1525;SDS011;756;49.982;8.240;2022-09-09T13:43:21;0.50;;;0.50;;
1525;SDS011;756;49.982;8.240;2022-09-09T13:45:53;1.90;;;0.80;;
1525;SDS011;756;49.982;8.240;2022-09-09T13:48:22;0.80;;;0.60;;
1525;SDS011;756;49.982;8.240;2022-09-09T13:50:54;1.10;;;0.53;;
1525;SDS011;756;49.982;8.240;2022-09-09T13:53:31;3.77;;;0.90;;
1525;SDS011;756;49.982;8.240;2022-09-09T13:55:58;1.17;;;0.40;;
1525;SDS011;756;49.982;8.240;2022-09-09T13:58:25;2.30;;;0.77;;
1525;SDS011;756;49.982;8.240;2022-09-09T14:00:52;1.00;;;0.73;;
1525;SDS011;756;49.982;8.240;2022-09-09T14:03:19;6.27;;;1.00;;
1525;SDS011;756;49.982;8.240;2022-09-09T14:05:47;1.70;;;1.13;;
1525;SDS011;756;49.982;8.240;2022-09-09T14:08:21;4.03;;;1.00;;
1525;SDS011;756;49.982;8.240;2022-09-09T14:10:49;1.80;;;0.87;;
1525;SDS011;756;49.982;8.240;2022-09-09T14:13:16;2.07;;;0.90;;
1525;SDS011;756;49.982;8.240;2022-09-09T14:15:43;2.10;;;0.70;;
1525;SDS011;756;49.982;8.240;2022-09-09T14:18:11;1.77;;;0.97;;
1525;SDS011;756;49.982;8.240;2022-09-09T14:20:39;1.33;;;1.13;;
1525;SDS011;756;49.982;8.240;2022-09-09T14:23:07;6.63;;;1.30;;
1525;SDS011;756;49.982;8.240;2022-09-09T14:25:39;1.70;;;0.93;;
1525;SDS011;756;49.982;8.240;2022-09-09T14:28:10;3.77;;;0.93;;
1525;SDS011;756;49.982;8.240;2022-09-09T14:30:38;7.70;;;1.70;;
1525;SDS011;756;49.982;8.240;2022-09-09T14:33:07;3.80;;;1.10;;
1525;SDS011;756;49.982;8.240;2022-09-09T14:35:35;2.70;;;0.83;;
1525;SDS011;756;49.982;8.240;2022-09-09T14:38:03;3.07;;;0.97;;
1525;SDS011;756;49.982;8.240;2022-09-09T14:40:30;3.00;;;1.07;;
1525;SDS011;756;49.982;8.240;2022-09-09T14:42:57;3.90;;;1.10;;
1525;SDS011;756;49.982;8.240;2022-09-09T14:45:24;2.27;;;1.10;;
1525;SDS011;756;49.982;8.240;2022-09-09T14:47:52;1.77;;;0.90;;
1525;SDS011;756;49.982;8.240;2022-09-09T14:50:19;5.50;;;1.13;;
1525;SDS011;756;49.982;8.240;2022-09-09T14:52:46;1.87;;;1.13;;
1525;SDS011;756;49.982;8.240;2022-09-09T14:55:13;2.77;;;1.20;;
1525;SDS011;756;49.982;8.240;2022-09-09T14:57:40;1.60;;;1.00;;
1525;SDS011;756;49.982;8.240;2022-09-09T15:00:07;4.23;;;1.40;;
1525;SDS011;756;49.982;8.240;2022-09-09T15:02:35;4.63;;;1.20;;
1525;SDS011;756;49.982;8.240;2022-09-09T15:05:02;3.93;;;1.60;;
1525;SDS011;756;49.982;8.240;2022-09-09T15:07:30;6.60;;;1.80;;
1525;SDS011;756;49.982;8.240;2022-09-09T15:09:57;2.40;;;1.43;;
1525;SDS011;756;49.982;8.240;2022-09-09T15:12:24;2.90;;;1.03;;
1525;SDS011;756;49.982;8.240;2022-09-09T15:14:51;1.20;;;1.03;;
1525;SDS011;756;49.982;8.240;2022-09-09T15:17:19;3.80;;;0.97;;
1525;SDS011;756;49.982;8.240;2022-09-09T15:19:46;1.90;;;1.00;;
1525;SDS011;756;49.982;8.240;2022-09-09T15:22:13;5.90;;;1.30;;
1525;SDS011;756;49.982;8.240;2022-09-09T15:24:40;5.13;;;1.77;;
1525;SDS011;756;49.982;8.240;2022-09-09T15:27:06;1.53;;;0.73;;
1525;SDS011;756;49.982;8.240;2022-09-09T15:29:33;2.73;;;1.43;;
1525;SDS011;756;49.982;8.240;2022-09-09T15:32:00;8.57;;;1.80;;
1525;SDS011;756;49.982;8.240;2022-09-09T15:34:26;6.57;;;2.23;;
1525;SDS011;756;49.982;8.240;2022-09-09T15:36:53;2.10;;;0.80;;
1525;SDS011;756;49.982;8.240;2022-09-09T15:39:21;3.10;;;0.90;;
1525;SDS011;756;49.982;8.240;2022-09-09T15:41:48;2.50;;;1.00;;
1525;SDS011;756;49.982;8.240;2022-09-09T15:44:15;2.87;;;1.43;;
1525;SDS011;756;49.982;8.240;2022-09-09T15:46:43;1.30;;;0.87;;
1525;SDS011;756;49.982;8.240;2022-09-09T15:49:11;1.70;;;0.70;;
1525;SDS011;756;49.982;8.240;2022-09-09T15:51:43;1.60;;;1.00;;
1525;SDS011;756;49.982;8.240;2022-09-09T15:54:12;3.13;;;1.30;;
1525;SDS011;756;49.982;8.240;2022-09-09T15:56:44;1.43;;;0.87;;
1525;SDS011;756;49.982;8.240;2022-09-09T15:59:12;2.57;;;1.43;;
1525;SDS011;756;49.982;8.240;2022-09-09T16:01:40;2.77;;;0.90;;
1525;SDS011;756;49.982;8.240;2022-09-09T16:04:08;5.60;;;1.63;;
1525;SDS011;756;49.982;8.240;2022-09-09T16:06:35;3.13;;;1.17;;
1525;SDS011;756;49.982;8.240;2022-09-09T16:09:03;2.00;;;0.90;;
1525;SDS011;756;49.982;8.240;2022-09-09T16:11:32;1.53;;;0.70;;
1525;SDS011;756;49.982;8.240;2022-09-09T16:14:03;1.47;;;0.70;;
1525;SDS011;756;49.982;8.240;2022-09-09T16:16:31;1.70;;;0.57;;
1525;SDS011;756;49.982;8.240;2022-09-09T16:18:59;2.87;;;0.70;;
1525;SDS011;756;49.982;8.240;2022-09-09T16:21:28;1.93;;;0.80;;
1525;SDS011;756;49.982;8.240;2022-09-09T16:23:58;1.53;;;0.63;;
1525;SDS011;756;49.982;8.240;2022-09-09T16:26:26;1.50;;;0.70;;
1525;SDS011;756;49.982;8.240;2022-09-09T16:28:53;1.27;;;0.60;;
1525;SDS011;756;49.982;8.240;2022-09-09T16:31:21;1.77;;;0.60;;
1525;SDS011;756;49.982;8.240;2022-09-09T16:33:49;2.60;;;0.70;;
1525;SDS011;756;49.982;8.240;2022-09-09T16:36:20;0.90;;;0.57;;
1525;SDS011;756;49.982;8.240;2022-09-09T16:38:53;1.00;;;0.60;;
1525;SDS011;756;49.982;8.240;2022-09-09T16:41:21;4.13;;;1.20;;
1525;SDS011;756;49.982;8.240;2022-09-09T16:43:51;0.73;;;0.60;;
1525;SDS011;756;49.982;8.240;2022-09-09T16:46:27;0.70;;;0.60;;
1525;SDS011;756;49.982;8.240;2022-09-09T16:48:58;2.40;;;0.70;;
1525;SDS011;756;49.982;8.240;2022-09-09T16:51:26;2.17;;;0.77;;
1525;SDS011;756;49.982;8.240;2022-09-09T16:53:55;2.27;;;0.80;;
1525;SDS011;756;49.982;8.240;2022-09-09T16:56:25;1.50;;;0.53;;
1525;SDS011;756;49.982;8.240;2022-09-09T16:58:54;1.10;;;1.00;;
1525;SDS011;756;49.982;8.240;2022-09-09T17:01:23;1.03;;;0.70;;
1525;SDS011;756;49.982;8.240;2022-09-09T17:03:52;0.70;;;0.53;;
1525;SDS011;756;49.982;8.240;2022-09-09T17:06:26;0.90;;;0.67;;
1525;SDS011;756;49.982;8.240;2022-09-09T17:08:55;5.20;;;1.53;;
1525;SDS011;756;49.982;8.240;2022-09-09T17:11:23;1.37;;;0.50;;
1525;SDS011;756;49.982;8.240;2022-09-09T17:13:50;1.90;;;0.60;;
1525;SDS011;756;49.982;8.240;2022-09-09T17:16:19;0.90;;;0.80;;
1525;SDS011;756;49.982;8.240;2022-09-09T17:18:48;3.33;;;0.83;;
1525;SDS011;756;49.982;8.240;2022-09-09T17:21:17;1.33;;;0.63;;
1525;SDS011;756;49.982;8.240;2022-09-09T17:23:45;1.83;;;0.60;;
1525;SDS011;756;49.982;8.240;2022-09-09T17:26:14;2.63;;;1.20;;
1525;SDS011;756;49.982;8.240;2022-09-09T17:28:42;3.03;;;1.27;;
1525;SDS011;756;49.982;8.240;2022-09-09T17:31:12;2.93;;;1.07;;
1525;SDS011;756;49.982;8.240;2022-09-09T17:33:42;3.30;;;1.10;;
1525;SDS011;756;49.982;8.240;2022-09-09T17:36:13;1.87;;;0.97;;
1525;SDS011;756;49.982;8.240;2022-09-09T17:38:45;1.00;;;0.60;;
1525;SDS011;756;49.982;8.240;2022-09-09T17:41:14;3.40;;;1.43;;
1525;SDS011;756;49.982;8.240;2022-09-09T17:43:43;2.17;;;1.20;;
1525;SDS011;756;49.982;8.240;2022-09-09T17:46:12;2.33;;;0.83;;
1525;SDS011;756;49.982;8.240;2022-09-09T17:48:43;2.40;;;1.00;;
1525;SDS011;756;49.982;8.240;2022-09-09T17:51:11;1.77;;;1.43;;
1525;SDS011;756;49.982;8.240;2022-09-09T17:53:41;4.90;;;1.23;;
1525;SDS011;756;49.982;8.240;2022-09-09T17:56:10;1.50;;;1.27;;
1525;SDS011;756;49.982;8.240;2022-09-09T17:58:38;3.73;;;2.70;;
1525;SDS011;756;49.982;8.240;2022-09-09T18:01:06;4.97;;;1.20;;
1525;SDS011;756;49.982;8.240;2022-09-09T18:03:38;1.90;;;1.00;;